Time;durP1;ratioP1;P1;durP2;ratioP2;P2;SDS_P1;SDS_P2;PMS_P1;PMS_P2;Temp;Humidity;BMP_temperature;BMP_pressure;BME280_temperature;BME280_humidity;BME280_pressure;Samples;Min_cycle;Max_cycle;Signal;HPM_P1;HPM_P2
2021/09/23 00:00:16;;;;;;;8.30;4.53;;;11.00;99.90;;;;;;5084274;28;20510;-63
2021/09/23 00:05:13;;;;;;;17.17;5.93;;;11.10;99.90;;;;;;5043585;28;20033;-62
2021/09/23 00:07:41;;;;;;;13.95;5.75;;;11.20;99.90;;;;;;5049685;28;20041;-63
2021/09/23 00:10:18;;;;;;;12.00;5.28;;;11.20;99.90;;;;;;5063543;28;20040;-63
2021/09/23 00:12:46;;;;;;;10.70;5.55;;;11.30;99.90;;;;;;5061730;28;20094;-63
2021/09/23 00:15:15;;;;;;;8.68;4.65;;;11.30;99.90;;;;;;5062328;28;20044;-63
2021/09/23 00:17:52;;;;;;;9.15;5.05;;;11.30;99.90;;;;;;5054990;28;20049;-63
2021/09/23 00:20:27;;;;;;;9.20;4.90;;;11.40;99.90;;;;;;5044971;28;20034;-62
2021/09/23 00:22:54;;;;;;;9.13;5.28;;;11.30;99.90;;;;;;5041775;28;20033;-64
2021/09/23 00:25:26;;;;;;;9.52;4.78;;;11.20;99.90;;;;;;5050200;28;20435;-63
2021/09/23 00:27:59;;;;;;;9.57;4.40;;;11.10;99.90;;;;;;5047117;28;20748;-64
2021/09/23 00:30:26;;;;;;;8.32;4.85;;;11.10;99.90;;;;;;5049766;28;20101;-64
2021/09/23 00:32:56;;;;;;;13.05;5.68;;;11.00;99.90;;;;;;5050193;28;20052;-64
2021/09/23 00:35:24;;;;;;;8.60;4.82;;;11.00;99.90;;;;;;5050004;28;20567;-63
2021/09/23 00:37:50;;;;;;;8.82;4.68;;;11.00;99.90;;;;;;5048624;28;20485;-64
2021/09/23 00:40:19;;;;;;;9.40;4.70;;;10.90;99.90;;;;;;5049681;28;20037;-64
2021/09/23 00:42:47;;;;;;;10.57;5.13;;;10.80;99.90;;;;;;5049123;28;20037;-64
2021/09/23 00:45:15;;;;;;;7.65;4.57;;;10.70;99.90;;;;;;5048658;28;20094;-64
2021/09/23 00:47:41;;;;;;;7.50;5.00;;;10.60;99.90;;;;;;5048043;28;20049;-65
2021/09/23 00:50:10;;;;;;;;;;;10.60;99.90;;;;;;5049754;28;20405;-63
2021/09/23 00:52:37;;;;;;;8.50;4.88;;;10.60;99.90;;;;;;5049216;28;19916;-62
2021/09/23 00:55:07;;;;;;;10.63;5.18;;;10.50;99.90;;;;;;5049309;28;20049;-62
2021/09/23 00:57:34;;;;;;;10.85;4.90;;;10.50;99.90;;;;;;5047486;28;20041;-62
2021/09/23 01:00:12;;;;;;;9.25;4.57;;;10.40;99.90;;;;;;5049232;28;20048;-62
2021/09/23 01:02:46;;;;;;;9.45;4.80;;;10.40;99.90;;;;;;5047572;28;20045;-62
2021/09/23 01:05:15;;;;;;;9.10;4.50;;;10.50;99.90;;;;;;5048565;28;20076;-62
2021/09/23 01:07:45;;;;;;;;;;;10.40;99.90;;;;;;5041369;28;20549;-62
2021/09/23 01:10:11;;;;;;;9.15;4.95;;;10.40;99.90;;;;;;5048316;28;19997;-62
2021/09/23 01:12:39;;;;;;;7.57;4.35;;;10.40;99.90;;;;;;5048388;28;20124;-62
2021/09/23 01:15:09;;;;;;;5.47;3.60;;;10.40;99.90;;;;;;5047824;28;20040;-62
2021/09/23 01:17:35;;;;;;;8.18;4.93;;;10.50;99.90;;;;;;5045599;28;20087;-63
2021/09/23 01:20:05;;;;;;;8.32;4.75;;;10.40;99.90;;;;;;5048936;28;20744;-64
2021/09/23 01:22:33;;;;;;;8.48;4.80;;;10.30;99.90;;;;;;5048361;28;20140;-64
2021/09/23 01:25:01;;;;;;;8.73;4.38;;;10.30;99.90;;;;;;5048994;28;20429;-63
2021/09/23 01:27:30;;;;;;;11.80;4.22;;;10.30;99.90;;;;;;5048139;28;20041;-64
2021/09/23 01:29:58;;;;;;;7.57;4.25;;;10.30;99.90;;;;;;5047736;28;20053;-63
2021/09/23 01:32:26;;;;;;;12.50;4.53;;;10.40;99.90;;;;;;5037799;28;20033;-63
2021/09/23 01:34:58;;;;;;;10.63;4.43;;;10.40;99.90;;;;;;5049171;28;20603;-63
2021/09/23 01:37:26;;;;;;;9.52;3.55;;;10.50;99.90;;;;;;5047488;28;20132;-63
2021/09/23 01:39:52;;;;;;;8.07;4.05;;;10.50;99.90;;;;;;5048970;28;20041;-63
2021/09/23 01:42:21;;;;;;;;;;;10.50;99.90;;;;;;5048465;28;20635;-67
2021/09/23 01:44:50;;;;;;;9.57;4.10;;;10.50;99.90;;;;;;5034518;28;20277;-63
2021/09/23 01:47:16;;;;;;;12.65;4.65;;;10.40;99.90;;;;;;5051301;28;20047;-63
2021/09/23 01:49:41;;;;;;;;;;;10.40;99.90;;;;;;5049211;28;20131;-63
2021/09/23 01:52:15;;;;;;;7.90;4.07;;;10.40;99.90;;;;;;5048823;28;19921;-64
2021/09/23 01:54:48;;;;;;;9.40;3.80;;;10.40;99.90;;;;;;5048716;28;20044;-63
2021/09/23 01:57:15;;;;;;;8.30;4.03;;;10.30;99.90;;;;;;5047677;28;20048;-63
2021/09/23 01:59:46;;;;;;;7.63;4.13;;;10.30;99.90;;;;;;5047411;28;20132;-63
2021/09/23 02:02:11;;;;;;;25.33;14.57;;;10.20;99.90;;;;;;5064087;28;20094;-63
2021/09/23 02:04:38;;;;;;;;;;;10.20;99.90;;;;;;5068418;28;20468;-63
2021/09/23 02:07:10;;;;;;;11.63;5.10;;;10.10;99.90;;;;;;5063643;28;19921;-62
2021/09/23 02:09:36;;;;;;;7.88;3.95;;;10.10;99.90;;;;;;5056748;28;20527;-62
2021/09/23 02:12:02;;;;;;;;;;;10.10;99.90;;;;;;5067633;28;20496;-63
2021/09/23 02:14:30;;;;;;;5.17;3.57;;;10.20;99.90;;;;;;5067810;28;19920;-63
2021/09/23 02:17:04;;;;;;;10.90;3.58;;;10.10;99.90;;;;;;5065847;28;20135;-63
2021/09/23 02:19:33;;;;;;;7.55;3.28;;;10.00;99.90;;;;;;5067945;28;20072;-62
2021/09/23 02:22:02;;;;;;;5.28;2.20;;;10.10;99.90;;;;;;5049766;28;20033;-62
2021/09/23 02:24:27;;;;;;;8.00;2.47;;;10.20;99.90;;;;;;5048220;28;20120;-63
2021/09/23 02:26:54;;;;;;;;;;;10.30;99.90;;;;;;5046843;28;20124;-62
2021/09/23 02:29:22;;;;;;;5.35;3.00;;;10.30;99.90;;;;;;5047682;28;19920;-62
2021/09/23 02:31:48;;;;;;;6.15;2.65;;;10.30;99.90;;;;;;5046750;28;20140;-62
2021/09/23 02:34:15;;;;;;;;;;;10.30;99.90;;;;;;5048491;28;20124;-62
2021/09/23 02:36:41;;;;;;;3.67;2.70;;;10.20;99.90;;;;;;5046059;28;19920;-62
2021/09/23 02:39:14;;;;;;;10.95;1.88;;;10.30;99.90;;;;;;5061702;28;20094;-62
2021/09/23 02:41:40;;;;;;;6.68;2.10;;;10.40;99.90;;;;;;5067577;28;20552;-62
2021/09/23 02:44:09;;;;;;;3.80;1.88;;;10.50;99.90;;;;;;5067379;28;20124;-62
2021/09/23 02:46:34;;;;;;;5.72;2.47;;;10.70;99.90;;;;;;5067959;28;20098;-62
2021/09/23 02:49:00;;;;;;;;;;;10.70;99.90;;;;;;5068243;28;20036;-62
2021/09/23 02:51:25;;;;;;;4.68;2.20;;;10.80;99.90;;;;;;5068523;28;19928;-62
2021/09/23 02:53:51;;;;;;;;;;;10.80;99.90;;;;;;5068801;28;20609;-62
2021/09/23 02:56:17;;;;;;;6.90;2.10;;;10.80;99.90;;;;;;5062494;28;19923;-62
2021/09/23 02:58:44;;;;;;;14.93;2.60;;;10.90;99.90;;;;;;5065449;28;20052;-62
2021/09/23 03:01:10;;;;;;;6.07;2.70;;;10.90;99.90;;;;;;5067068;28;20028;-61
2021/09/23 03:03:35;;;;;;;;;;;10.90;99.90;;;;;;5068694;28;20044;-62
2021/09/23 03:06:01;;;;;;;3.17;1.92;;;10.90;99.90;;;;;;5066280;28;19916;-62
2021/09/23 03:08:26;;;;;;;;;;;10.80;99.90;;;;;;5061408;28;20495;-60
2021/09/23 03:10:52;;;;;;;6.68;2.35;;;10.80;99.90;;;;;;5066868;28;19970;-62
2021/09/23 03:13:17;;;;;;;;;;;10.70;99.90;;;;;;5068314;28;20037;-62
2021/09/23 03:15:43;;;;;;;11.15;2.05;;;10.60;99.90;;;;;;5066329;28;20430;-61
2021/09/23 03:18:08;;;;;;;;;;;10.60;99.90;;;;;;5068103;28;20105;-62
2021/09/23 03:20:34;;;;;;;3.78;2.45;;;10.40;99.90;;;;;;5067686;28;20350;-61
2021/09/23 03:23:00;;;;;;;;;;;10.40;99.90;;;;;;5067500;28;20471;-60
2021/09/23 03:25:28;;;;;;;3.25;2.10;;;10.30;99.90;;;;;;5067004;28;19998;-61
2021/09/23 03:27:54;;;;;;;7.22;2.13;;;10.30;99.90;;;;;;5066573;28;20051;-62
2021/09/23 03:30:19;;;;;;;;;;;10.20;99.90;;;;;;5067502;28;20036;-59
2021/09/23 03:32:45;;;;;;;6.90;2.10;;;10.30;99.90;;;;;;5067842;28;19916;-61
2021/09/23 03:35:11;;;;;;;;;;;10.20;99.90;;;;;;5067684;28;20412;-61
2021/09/23 03:37:36;;;;;;;4.45;2.05;;;10.20;99.90;;;;;;5059382;28;20438;-60
2021/09/23 03:40:03;;;;;;;;;;;10.20;99.90;;;;;;5067235;28;20033;-60
2021/09/23 03:42:29;;;;;;;2.92;1.75;;;10.20;99.90;;;;;;5064756;28;20459;-61
2021/09/23 03:44:54;;;;;;;;;;;10.20;99.90;;;;;;5067627;28;20140;-61
2021/09/23 03:47:20;;;;;;;4.60;1.48;;;10.30;99.90;;;;;;5063911;28;20539;-61
2021/09/23 03:49:45;;;;;;;;;;;10.40;99.90;;;;;;5065714;28;20123;-61
2021/09/23 03:52:11;;;;;;;5.53;1.45;;;10.50;99.90;;;;;;5066620;28;20538;-62
2021/09/23 03:54:36;;;;;;;;;;;10.50;99.90;;;;;;5070486;28;20638;-61
2021/09/23 03:57:02;;;;;;;2.20;1.52;;;10.60;99.90;;;;;;5069440;28;19920;-61
2021/09/23 03:59:28;;;;;;;6.68;1.50;;;10.60;99.90;;;;;;5062154;28;20446;-61
2021/09/23 04:01:54;;;;;;;;;;;10.70;99.90;;;;;;5070783;28;20050;-61
2021/09/23 04:04:19;;;;;;;3.28;1.90;;;10.80;99.90;;;;;;5069988;28;20376;-61
2021/09/23 04:06:45;;;;;;;;;;;10.80;99.90;;;;;;5068641;28;20048;-62
2021/09/23 04:09:12;;;;;;;4.15;1.52;;;10.70;99.90;;;;;;5064299;28;19924;-62
2021/09/23 04:11:39;;;;;;;4.13;1.98;;;10.80;99.90;;;;;;5069414;28;20037;-62
2021/09/23 04:14:05;;;;;;;6.00;1.98;;;10.80;99.90;;;;;;5069871;28;20044;-62
2021/09/23 04:16:31;;;;;;;5.20;1.92;;;10.80;99.90;;;;;;5067610;28;20048;-61
2021/09/23 04:18:57;;;;;;;;;;;10.80;99.90;;;;;;5070444;28;20074;-62
2021/09/23 04:21:22;;;;;;;2.95;1.70;;;10.90;99.90;;;;;;5068936;28;19923;-62
2021/09/23 04:23:48;;;;;;;;;;;10.90;99.90;;;;;;5069758;28;20028;-62
2021/09/23 04:26:14;;;;;;;6.00;1.42;;;11.00;99.90;;;;;;5067745;28;19922;-62
2021/09/23 04:28:40;;;;;;;;;;;11.00;99.90;;;;;;5069970;28;20408;-61
2021/09/23 04:31:06;;;;;;;3.33;1.87;;;11.00;99.90;;;;;;5069101;28;20058;-62
2021/09/23 04:33:31;;;;;;;;;;;11.10;99.90;;;;;;5069859;28;20119;-62
2021/09/23 04:35:57;;;;;;;6.00;1.50;;;11.10;99.90;;;;;;5067665;28;19927;-62
2021/09/23 04:38:22;;;;;;;;;;;11.10;99.90;;;;;;5063421;28;20040;-62
2021/09/23 04:40:49;;;;;;;6.38;2.03;;;11.10;99.90;;;;;;5068647;28;20566;-62
2021/09/23 04:43:15;;;;;;;2.65;1.60;;;11.10;99.90;;;;;;5069290;28;20067;-62
2021/09/23 04:45:40;;;;;;;;;;;11.10;99.90;;;;;;5067672;28;20483;-62
2021/09/23 04:48:06;;;;;;;4.38;1.75;;;11.10;99.90;;;;;;5068959;28;19931;-62
2021/09/23 04:50:31;;;;;;;;;;;11.10;99.90;;;;;;5069551;28;20082;-62
2021/09/23 04:52:57;;;;;;;8.50;2.10;;;11.10;99.90;;;;;;5069110;28;20380;-62
2021/09/23 04:55:22;;;;;;;;;;;11.10;99.90;;;;;;5069501;28;20408;-62
2021/09/23 04:57:48;;;;;;;4.72;2.00;;;11.20;99.90;;;;;;5065207;28;20003;-65
2021/09/23 05:00:14;;;;;;;;;;;11.40;99.90;;;;;;5048413;28;20326;-61
2021/09/23 05:02:39;;;;;;;3.28;1.85;;;11.40;99.90;;;;;;5028823;28;20289;-62
2021/09/23 05:05:05;;;;;;;;;;;11.40;99.90;;;;;;5029380;28;20511;-62
2021/09/23 05:07:31;;;;;;;3.47;1.85;;;11.50;99.90;;;;;;5026290;28;20393;-62
2021/09/23 05:09:56;;;;;;;;;;;11.50;99.90;;;;;;5044843;28;20060;-62
2021/09/23 05:12:22;;;;;;;5.25;1.77;;;11.60;99.90;;;;;;5028860;28;19917;-62
2021/09/23 05:14:48;;;;;;;;;;;11.70;99.90;;;;;;5029103;28;20038;-62
2021/09/23 05:17:13;;;;;;;5.82;2.05;;;11.70;99.90;;;;;;5029441;28;19920;-62
2021/09/23 05:19:39;;;;;;;;;;;11.80;99.90;;;;;;5028965;28;20044;-62
2021/09/23 05:22:04;;;;;;;4.50;2.03;;;11.90;99.90;;;;;;5028182;28;19920;-62
2021/09/23 05:24:30;;;;;;;;;;;11.90;99.90;;;;;;5027736;28;20049;-62
2021/09/23 05:26:55;;;;;;;2.58;1.80;;;12.00;99.90;;;;;;5026743;28;20396;-62
2021/09/23 05:29:21;;;;;;;;;;;12.00;99.90;;;;;;5029343;28;20103;-61
2021/09/23 05:31:46;;;;;;;5.50;1.92;;;12.10;99.90;;;;;;5027734;28;19986;-62
2021/09/23 05:34:12;;;;;;;;;;;12.10;99.90;;;;;;5033767;28;20035;-61
2021/09/23 05:36:38;;;;;;;5.15;2.38;;;12.10;99.90;;;;;;5038091;28;20046;-62
2021/09/23 05:39:04;;;;;;;;;;;12.20;99.90;;;;;;5037450;28;20044;-62
2021/09/23 05:41:30;;;;;;;2.58;1.42;;;12.20;99.90;;;;;;5036162;28;20020;-62
2021/09/23 05:43:56;;;;;;;6.80;1.88;;;12.20;99.90;;;;;;5042460;28;20059;-62
2021/09/23 05:46:21;;;;;;;;;;;12.20;99.90;;;;;;5045227;28;20464;-62
2021/09/23 05:48:47;;;;;;;4.50;2.08;;;12.20;99.90;;;;;;5047436;28;19928;-62
2021/09/23 05:51:12;;;;;;;;;;;12.20;99.90;;;;;;5047504;28;20040;-62
2021/09/23 05:53:38;;;;;;;4.07;2.05;;;12.20;99.90;;;;;;5048050;28;19970;-60
2021/09/23 05:56:04;;;;;;;;;;;12.20;99.90;;;;;;5046414;28;20484;-62
2021/09/23 05:58:29;;;;;;;3.55;1.83;;;12.20;99.90;;;;;;5047321;28;19960;-62
2021/09/23 06:00:55;;;;;;;;;;;12.20;99.90;;;;;;5043044;28;20439;-62
2021/09/23 06:03:21;;;;;;;4.03;2.65;;;12.20;99.90;;;;;;5046844;28;19917;-61
2021/09/23 06:05:47;;;;;;;5.30;2.47;;;12.30;99.90;;;;;;5046205;28;20041;-61
2021/09/23 06:08:14;;;;;;;6.72;2.95;;;12.50;99.90;;;;;;5047068;28;20041;-61
2021/09/23 06:10:39;;;;;;;7.10;3.25;;;12.60;99.90;;;;;;5039083;28;20143;-61
2021/09/23 06:13:05;;;;;;;;;;;12.70;99.90;;;;;;5047949;28;20124;-62
2021/09/23 06:15:32;;;;;;;5.45;3.20;;;12.80;99.90;;;;;;5045798;28;19924;-61
2021/09/23 06:17:57;;;;;;;5.70;3.25;;;12.80;99.90;;;;;;5047190;28;20688;-62
2021/09/23 06:20:23;;;;;;;;;;;12.90;99.90;;;;;;5047832;28;20130;-62
2021/09/23 06:22:50;;;;;;;5.28;2.75;;;13.00;99.90;;;;;;5047754;28;20004;-61
2021/09/23 06:25:15;;;;;;;5.70;3.10;;;13.20;99.90;;;;;;5045636;28;20401;-62
2021/09/23 06:27:41;;;;;;;;;;;13.20;99.90;;;;;;5045587;28;20045;-58
2021/09/23 06:30:07;;;;;;;8.02;2.67;;;13.30;99.90;;;;;;5046856;28;19921;-60
2021/09/23 06:32:33;;;;;;;4.75;2.83;;;13.30;99.90;;;;;;5064644;28;20047;-62
2021/09/23 06:34:59;;;;;;;;;;;13.30;99.90;;;;;;5066896;28;20040;-62
2021/09/23 06:37:25;;;;;;;5.75;2.90;;;13.40;99.90;;;;;;5058615;28;19970;-61
2021/09/23 06:39:50;;;;;;;;;;;13.40;99.90;;;;;;5065580;28;20032;-61
2021/09/23 06:42:17;;;;;;;10.45;5.45;;;13.50;99.90;;;;;;5066517;28;20029;-61
2021/09/23 06:44:43;;;;;;;7.60;3.00;;;13.60;99.90;;;;;;5066729;28;20049;-61
2021/09/23 06:47:10;;;;;;;6.55;3.63;;;13.50;99.90;;;;;;5056540;28;20068;-61
2021/09/23 06:49:36;;;;;;;10.88;6.03;;;13.50;99.90;;;;;;5060155;28;20125;-61
2021/09/23 06:52:01;;;;;;;;;;;13.60;99.90;;;;;;5055683;28;20040;-61
2021/09/23 06:54:27;;;;;;;8.77;4.20;;;13.60;99.90;;;;;;5054105;28;20342;-59
2021/09/23 06:56:53;;;;;;;;;;;13.60;99.90;;;;;;5049954;28;20045;-61
2021/09/23 06:59:18;;;;;;;4.50;2.50;;;13.50;99.90;;;;;;5061351;28;20011;-62
2021/09/23 07:01:44;;;;;;;;;;;13.60;99.90;;;;;;5067479;28;20041;-62
2021/09/23 07:04:10;;;;;;;6.50;3.17;;;13.60;99.90;;;;;;5066843;28;19946;-62
2021/09/23 07:06:36;;;;;;;;;;;13.70;99.90;;;;;;5062062;28;20032;-62
2021/09/23 07:09:03;;;;;;;4.65;2.83;;;13.70;99.90;;;;;;5061913;28;20659;-62
2021/09/23 07:11:28;;;;;;;5.72;3.10;;;13.80;99.90;;;;;;5062669;28;20051;-61
2021/09/23 07:13:54;;;;;;;;;;;13.90;99.90;;;;;;5066208;28;20028;-62
2021/09/23 07:16:19;;;;;;;5.72;3.45;;;13.90;99.90;;;;;;5065071;28;20010;-62
2021/09/23 07:18:45;;;;;;;;;;;13.90;99.90;;;;;;5066210;28;20684;-62
2021/09/23 07:21:10;;;;;;;8.25;3.00;;;14.00;99.90;;;;;;5066780;28;20012;-61
2021/09/23 07:23:36;;;;;;;;;;;14.00;99.90;;;;;;5067197;28;20446;-62
2021/09/23 07:26:02;;;;;;;4.93;2.75;;;13.90;99.90;;;;;;5070942;28;19938;-64
2021/09/23 07:28:28;;;;;;;6.10;3.22;;;14.00;99.90;;;;;;5078444;28;20051;-57
2021/09/23 07:30:54;;;;;;;4.75;2.90;;;14.00;99.90;;;;;;5076787;28;20044;-58
2021/09/23 07:33:20;;;;;;;;;;;14.10;99.90;;;;;;5072034;28;20440;-62
2021/09/23 07:35:45;;;;;;;5.72;3.20;;;14.10;99.90;;;;;;5075049;28;19916;-62
2021/09/23 07:38:11;;;;;;;;;;;14.10;99.90;;;;;;5075540;28;20064;-60
2021/09/23 07:40:40;;;;;;;9.43;3.67;;;14.20;99.90;;;;;;5072618;28;19916;-61
2021/09/23 07:43:06;;;;;;;5.28;3.75;;;14.20;99.90;;;;;;5082183;28;20361;-62
2021/09/23 07:45:36;;;;;;;;;;;14.20;99.90;;;;;;5076219;28;20085;-64
2021/09/23 07:48:08;;;;;;;5.97;3.47;;;14.30;99.90;;;;;;5062945;28;20387;-62
2021/09/23 07:50:44;;;;;;;6.22;3.30;;;14.30;99.90;;;;;;5076409;28;20055;-61
2021/09/23 07:53:10;;;;;;;6.22;3.78;;;14.40;99.90;;;;;;5069665;28;20040;-62
2021/09/23 07:55:35;;;;;;;;;;;14.40;99.90;;;;;;5064044;28;20036;-62
2021/09/23 07:58:02;;;;;;;7.97;3.63;;;14.40;99.90;;;;;;5086290;28;19916;-62
2021/09/23 08:00:28;;;;;;;7.07;3.60;;;14.50;99.90;;;;;;5068935;28;20036;-62
2021/09/23 08:02:54;;;;;;;;;;;14.50;99.90;;;;;;5071465;28;20142;-62
2021/09/23 08:05:22;;;;;;;4.47;3.00;;;14.60;99.90;;;;;;5070255;28;19916;-62
2021/09/23 08:07:49;;;;;;;9.18;3.13;;;14.70;99.90;;;;;;5063033;28;20033;-63
2021/09/23 08:10:15;;;;;;;5.90;3.83;;;15.00;99.90;;;;;;5063253;28;20040;-62
2021/09/23 08:12:41;;;;;;;5.53;2.97;;;15.90;99.40;;;;;;5070202;28;20067;-62
2021/09/23 08:15:07;;;;;;;;;;;16.90;97.10;;;;;;5070675;28;20114;-61
2021/09/23 08:17:33;;;;;;;7.07;3.40;;;17.80;96.60;;;;;;5069928;28;20407;-62
2021/09/23 08:19:58;;;;;;;;;;;17.90;94.00;;;;;;5071274;28;20048;-62
2021/09/23 08:22:24;;;;;;;5.45;3.42;;;17.30;95.20;;;;;;5070546;28;19974;-62
2021/09/23 08:24:49;;;;;;;;;;;16.70;97.10;;;;;;5070744;28;20067;-62
2021/09/23 08:27:15;;;;;;;5.50;3.10;;;16.30;97.80;;;;;;5068605;28;20008;-62
2021/09/23 08:29:42;;;;;;;;;;;16.10;98.30;;;;;;5070468;28;20045;-62
2021/09/23 08:32:07;;;;;;;8.20;3.00;;;15.70;98.20;;;;;;5069900;28;20007;-61
2021/09/23 08:34:33;;;;;;;;;;;15.60;98.80;;;;;;5054651;28;20729;-61
2021/09/23 08:36:58;;;;;;;7.13;3.42;;;15.60;99.30;;;;;;5050544;28;20405;-61
2021/09/23 08:39:24;;;;;;;;;;;15.60;99.10;;;;;;5063246;28;20037;-61
2021/09/23 08:41:49;;;;;;;7.32;3.72;;;15.60;98.60;;;;;;5067938;28;19939;-61
2021/09/23 08:44:15;;;;;;;;;;;15.50;98.90;;;;;;5070314;28;20041;-61
2021/09/23 08:46:42;;;;;;;6.40;4.00;;;15.60;99.30;;;;;;5068133;28;19931;-61
2021/09/23 08:49:10;;;;;;;5.57;3.33;;;15.60;98.90;;;;;;5069719;28;20040;-62
2021/09/23 08:51:37;;;;;;;7.82;3.42;;;15.70;98.80;;;;;;5070328;28;20416;-62
2021/09/23 08:54:03;;;;;;;5.20;3.20;;;15.70;98.10;;;;;;5069789;28;20075;-62
2021/09/23 08:56:30;;;;;;;8.30;3.55;;;15.80;98.80;;;;;;5068228;28;20048;-62
2021/09/23 08:58:55;;;;;;;6.05;3.20;;;15.80;98.60;;;;;;5061200;28;20390;-62
2021/09/23 09:01:23;;;;;;;;;;;15.90;98.60;;;;;;5050000;28;20036;-62
2021/09/23 09:04:01;;;;;;;8.20;3.50;;;16.00;98.80;;;;;;5049749;28;19970;-62
2021/09/23 09:06:26;;;;;;;8.95;4.03;;;16.10;98.70;;;;;;5047949;28;20073;-62
2021/09/23 09:08:52;;;;;;;;;;;16.20;98.40;;;;;;5065004;28;20574;-62
2021/09/23 09:11:18;;;;;;;6.03;3.38;;;16.30;97.60;;;;;;5061679;28;19920;-62
2021/09/23 09:13:44;;;;;;;;;;;16.30;97.40;;;;;;5058309;28;20041;-62
2021/09/23 09:16:20;;;;;;;6.63;3.28;;;16.40;97.90;;;;;;5067469;28;19916;-62
2021/09/23 09:18:47;;;;;;;21.23;8.13;;;16.50;97.20;;;;;;5069332;28;20097;-62
2021/09/23 09:21:15;;;;;;;10.70;5.93;;;16.60;97.90;;;;;;5068831;28;20547;-62
2021/09/23 09:23:54;;;;;;;6.22;4.10;;;16.70;97.60;;;;;;5069053;28;20036;-62
2021/09/23 09:26:25;;;;;;;7.18;3.22;;;16.70;96.80;;;;;;5067638;28;20041;-62
2021/09/23 09:28:53;;;;;;;5.85;4.00;;;16.60;97.50;;;;;;5069455;28;20044;-61
2021/09/23 09:31:20;;;;;;;12.43;5.28;;;16.60;96.80;;;;;;5068580;28;20120;-62
2021/09/23 09:33:48;;;;;;;11.45;6.05;;;16.70;97.60;;;;;;5068203;28;20516;-62
2021/09/23 09:36:25;;;;;;;5.18;2.92;;;16.80;97.60;;;;;;5054893;28;20059;-62
2021/09/23 09:38:53;;;;;;;7.93;3.53;;;17.00;97.10;;;;;;5067005;28;20035;-60
2021/09/23 09:41:23;;;;;;;6.38;3.38;;;17.00;96.50;;;;;;5060904;28;20033;-62
2021/09/23 09:43:51;;;;;;;7.68;3.17;;;17.10;97.30;;;;;;5068999;28;20145;-62
2021/09/23 09:46:28;;;;;;;10.20;3.58;;;17.20;96.80;;;;;;5069522;28;20515;-63
2021/09/23 09:48:55;;;;;;;6.30;3.17;;;17.20;96.20;;;;;;5073405;28;20855;-63
2021/09/23 09:51:22;;;;;;;7.68;3.35;;;17.30;96.20;;;;;;5060746;28;20115;-62
2021/09/23 09:54:01;;;;;;;7.00;3.30;;;17.40;96.40;;;;;;5049190;28;20076;-63
2021/09/23 09:56:27;;;;;;;5.43;3.00;;;17.20;95.60;;;;;;5049555;28;20052;-62
2021/09/23 09:59:12;;;;;;;;;;;17.30;95.80;;;;;;5053573;28;20040;-62
2021/09/23 10:01:40;;;;;;;8.00;2.78;;;17.30;95.40;;;;;;5058942;28;20352;-62
2021/09/23 10:04:06;;;;;;;3.80;2.38;;;17.40;94.90;;;;;;5061135;28;20041;-62
2021/09/23 10:06:33;;;;;;;5.05;2.78;;;17.40;94.90;;;;;;5054627;28;20048;-62
2021/09/23 10:08:58;;;;;;;4.15;2.50;;;17.50;94.80;;;;;;5063924;28;20512;-62
2021/09/23 10:11:24;;;;;;;;;;;17.60;95.20;;;;;;5056563;28;20044;-62
2021/09/23 10:13:52;;;;;;;6.32;3.00;;;17.70;94.90;;;;;;5056813;28;19921;-63
2021/09/23 10:16:18;;;;;;;4.63;2.58;;;17.70;94.00;;;;;;5056636;28;20041;-62
2021/09/23 10:18:45;;;;;;;12.35;2.83;;;17.80;94.10;;;;;;5057428;22;20044;-62
2021/09/23 10:21:11;;;;;;;4.38;2.42;;;17.80;94.10;;;;;;5064302;28;20127;-62
2021/09/23 10:23:40;;;;;;;5.78;2.85;;;17.90;94.30;;;;;;5073753;28;20045;-61
2021/09/23 10:26:31;;;;;;;5.40;2.97;;;18.00;93.70;;;;;;5076805;28;20100;-62
2021/09/23 10:29:58;;;;;;;5.20;2.55;;;18.00;94.10;;;;;;5063518;28;20059;-62
2021/09/23 10:32:25;;;;;;;5.00;2.67;;;17.90;93.80;;;;;;5077329;28;20236;-63
2021/09/23 10:34:53;;;;;;;3.88;2.40;;;17.80;93.00;;;;;;5078152;28;20127;-62
2021/09/23 10:37:19;;;;;;;6.28;2.92;;;17.70;93.50;;;;;;5061523;28;20174;-63
2021/09/23 10:39:45;;;;;;;;;;;17.70;94.10;;;;;;5085492;28;20473;-63
2021/09/23 10:42:11;;;;;;;4.93;2.10;;;17.70;93.90;;;;;;5081501;28;20268;-62
2021/09/23 10:44:38;;;;;;;7.72;2.55;;;17.70;94.70;;;;;;5080866;28;20044;-63
2021/09/23 10:47:07;;;;;;;7.47;3.35;;;17.80;94.00;;;;;;5075870;28;20435;-62
2021/09/23 10:49:34;;;;;;;8.90;2.53;;;17.60;94.00;;;;;;5080082;28;20046;-61
2021/09/23 10:52:01;;;;;;;10.10;2.30;;;17.70;94.70;;;;;;5078207;28;20468;-61
2021/09/23 10:54:27;;;;;;;4.85;2.65;;;17.60;94.40;;;;;;5077310;28;20120;-61
2021/09/23 10:56:54;;;;;;;4.57;2.83;;;17.70;94.70;;;;;;5075999;28;20086;-61
2021/09/23 10:59:20;;;;;;;7.05;3.20;;;17.60;94.20;;;;;;5077445;28;20090;-62
2021/09/23 11:01:46;;;;;;;5.72;3.30;;;17.60;94.50;;;;;;5075224;28;20063;-62
2021/09/23 11:04:12;;;;;;;;;;;17.60;94.20;;;;;;5080134;28;20037;-62
2021/09/23 11:06:41;;;;;;;6.13;2.90;;;17.70;94.60;;;;;;5072547;28;19920;-61
2021/09/23 11:09:19;;;;;;;8.23;3.00;;;17.80;95.30;;;;;;5074747;28;20039;-62
2021/09/23 11:11:58;;;;;;;5.25;3.08;;;17.70;94.90;;;;;;5077688;28;20076;-62
2021/09/23 11:14:25;;;;;;;6.40;2.60;;;17.80;95.80;;;;;;5076753;28;20298;-62
2021/09/23 11:16:54;;;;;;;7.47;3.10;;;17.80;94.70;;;;;;5078606;28;20093;-62
2021/09/23 11:19:22;;;;;;;6.50;2.65;;;17.90;94.60;;;;;;5078979;28;20083;-62
2021/09/23 11:21:54;;;;;;;6.30;3.03;;;18.10;94.40;;;;;;5078316;28;20123;-64
2021/09/23 11:24:22;;;;;;;9.68;3.05;;;18.10;94.50;;;;;;5078697;28;20036;-64
2021/09/23 11:26:47;;;;;;;5.03;3.03;;;18.20;94.50;;;;;;5077441;28;20128;-64
2021/09/23 11:29:13;;;;;;;;;;;18.30;94.30;;;;;;5079330;28;20407;-63
2021/09/23 11:31:45;;;;;;;7.28;4.70;;;18.30;94.10;;;;;;5010701;28;20558;-63
2021/09/23 11:34:11;;;;;;;5.28;2.78;;;18.30;94.30;;;;;;5060730;28;20053;-63
2021/09/23 11:36:43;;;;;;;;;;;18.20;93.80;;;;;;5056230;28;20052;-63
2021/09/23 11:39:20;;;;;;;6.38;3.05;;;18.10;93.80;;;;;;5052758;28;19936;-62
2021/09/23 11:42:14;;;;;;;10.60;3.35;;;18.20;94.20;;;;;;5058211;28;20041;-63
2021/09/23 11:44:42;;;;;;;6.43;2.88;;;18.30;93.70;;;;;;5054369;28;20053;-63
2021/09/23 11:47:14;;;;;;;7.25;2.60;;;18.20;94.60;;;;;;5078878;28;20047;-63
2021/09/23 11:49:41;;;;;;;6.72;2.55;;;18.20;94.40;;;;;;5087533;28;20040;-62
2021/09/23 11:52:07;;;;;;;6.95;2.50;;;18.20;94.00;;;;;;5087557;28;20032;-62
2021/09/23 11:54:34;;;;;;;;;;;18.20;94.40;;;;;;5086682;28;20459;-63
2021/09/23 11:57:00;;;;;;;6.63;2.38;;;18.40;93.40;;;;;;5085336;28;19916;-63
2021/09/23 11:59:28;;;;;;;7.60;4.30;;;18.30;94.00;;;;;;5085949;28;20402;-62
2021/09/23 12:02:06;;;;;;;5.68;2.30;;;18.30;94.20;;;;;;5085432;28;20039;-63
2021/09/23 12:04:33;;;;;;;5.97;3.28;;;18.40;93.10;;;;;;5086885;28;20492;-62
2021/09/23 12:07:08;;;;;;;7.40;3.20;;;18.50;93.30;;;;;;5084111;28;20036;-60
2021/09/23 12:09:33;;;;;;;3.13;2.00;;;18.50;92.20;;;;;;5086813;28;20147;-61
2021/09/23 12:11:59;;;;;;;;;;;18.60;92.70;;;;;;5077243;28;20119;-61
2021/09/23 12:14:25;;;;;;;3.65;2.17;;;18.40;92.80;;;;;;5089496;28;20529;-61
2021/09/23 12:17:02;;;;;;;;;;;18.50;92.40;;;;;;5088983;28;20135;-61
2021/09/23 12:19:28;;;;;;;7.68;4.25;;;18.50;92.80;;;;;;5089811;28;19916;-61
2021/09/23 12:21:54;;;;;;;;;;;18.60;92.00;;;;;;5080946;28;20043;-61
2021/09/23 12:24:31;;;;;;;5.38;2.22;;;18.50;91.80;;;;;;5088737;28;19923;-61
2021/09/23 12:26:57;;;;;;;4.47;2.17;;;18.50;91.80;;;;;;5088281;28;20051;-61
2021/09/23 12:29:24;;;;;;;;;;;18.50;91.00;;;;;;5090413;28;20434;-60
2021/09/23 12:32:07;;;;;;;3.80;1.95;;;18.50;91.10;;;;;;5088805;28;19916;-61
2021/09/23 12:34:46;;;;;;;4.45;1.73;;;18.50;90.90;;;;;;5090147;28;20119;-60
2021/09/23 12:37:12;;;;;;;3.75;2.00;;;18.60;90.60;;;;;;5087779;28;20040;-62
2021/09/23 12:39:45;;;;;;;8.18;2.60;;;18.60;91.20;;;;;;5089937;28;20060;-62
2021/09/23 12:42:13;;;;;;;3.75;2.28;;;18.60;91.00;;;;;;5089291;28;20051;-62
2021/09/23 12:44:41;;;;;;;4.90;3.20;;;18.70;90.90;;;;;;5089178;28;20601;-62
2021/09/23 12:47:09;;;;;;;3.90;2.28;;;18.60;91.10;;;;;;5087925;28;20036;-62
2021/09/23 12:49:40;;;;;;;9.75;3.42;;;18.50;90.70;;;;;;5088842;28;20044;-62
2021/09/23 12:52:15;;;;;;;4.05;2.50;;;18.50;91.40;;;;;;5089108;28;20040;-62
2021/09/23 12:54:54;;;;;;;5.68;2.35;;;18.50;90.90;;;;;;5088684;28;20051;-62
2021/09/23 12:57:23;;;;;;;4.00;1.95;;;18.40;90.80;;;;;;5082178;28;20040;-62
2021/09/23 12:59:49;;;;;;;3.38;1.95;;;18.30;91.10;;;;;;5089934;28;20113;-62
2021/09/23 13:02:20;;;;;;;;;;;18.30;91.30;;;;;;5088332;28;20531;-62
2021/09/23 13:05:28;;;;;;;3.72;1.90;;;18.40;91.50;;;;;;5087454;28;19947;-62
2021/09/23 13:07:54;;;;;;;;;;;18.50;91.30;;;;;;5088618;28;20043;-62
2021/09/23 13:10:21;;;;;;;6.95;2.47;;;18.50;91.40;;;;;;5089205;28;19963;-61
2021/09/23 13:13:00;;;;;;;4.88;2.25;;;18.40;91.80;;;;;;5089017;28;20130;-62